Lambourn, United Kingdom
Current Conditions -  °F | °C
As of 10:43 AM on Thursday 27 Nov 2014 (Local Time) from EGVA Reporting Station
Overcast Overcast  
Wind Chill: 45°   Ceiling: 3000
Heat Index: 45°   Visibility: 6mi
Dew Point: 45°   Wind: 2mph
Humidity: 100%   Direction: 100°E
Pressure: 29.59"   Gusts: NA
Location:  51.51°N, 1.53°W
Report Text: EGVA 271043Z AUTO 10002KT 9999 FEW004 OVC030 07/07 A2959 RMK AO2 $
Loading
Personal Weather Stations






























Interactive Weather Map New forecast layout! Learn more

10-Day Weather Forecast

Advertisements
Track Severe Weather on mobile